Time;durP1;ratioP1;P1;durP2;ratioP2;P2;SDS_P1;SDS_P2;PMS_P1;PMS_P2;Temp;Humidity;BMP_temperature;BMP_pressure;BME280_temperature;BME280_humidity;BME280_pressure;Samples;Min_cycle;Max_cycle;Signal;HPM_P1;HPM_P2
2023/10/27 00:02:38;;;;;;;2.85;2.72;;;;;;;;;;6278308;28;20317;-72
2023/10/27 00:05:42;;;;;;;3.45;3.15;;;;;;;;;;6278084;28;20307;-72
2023/10/27 00:08:45;;;;;;;2.95;2.85;;;;;;;;;;6278515;28;20307;-73
2023/10/27 00:11:49;;;;;;;3.17;2.90;;;;;;;;;;6275852;28;20250;-71
2023/10/27 00:14:53;;;;;;;3.40;3.00;;;;;;;;;;6281390;28;20298;-73
2023/10/27 00:17:59;;;;;;;6.05;3.40;;;;;;;;;;6283314;28;20302;-72
2023/10/27 00:21:04;;;;;;;3.47;3.10;;;;;;;;;;6282596;28;20286;-72
2023/10/27 00:24:08;;;;;;;3.17;2.97;;;;;;;;;;6282596;28;20295;-71
2023/10/27 00:27:12;;;;;;;6.37;3.30;;;;;;;;;;6282146;28;20298;-72
2023/10/27 00:30:17;;;;;;;3.75;3.15;;;;;;;;;;6280812;28;20436;-73
2023/10/27 00:33:22;;;;;;;3.30;3.00;;;;;;;;;;6262026;28;20311;-71
2023/10/27 00:36:26;;;;;;;2.92;2.75;;;;;;;;;;6246250;28;20303;-72
2023/10/27 00:39:30;;;;;;;2.87;2.67;;;;;;;;;;6256624;28;20561;-71
2023/10/27 00:42:34;;;;;;;2.73;2.53;;;;;;;;;;6277000;28;20298;-70
2023/10/27 00:45:38;;;;;;;2.78;2.67;;;;;;;;;;6239688;28;20300;-71
2023/10/27 00:48:43;;;;;;;3.30;3.00;;;;;;;;;;6215161;28;20296;-71
2023/10/27 00:51:49;;;;;;;3.00;2.80;;;;;;;;;;6232115;28;20301;-72
2023/10/27 00:54:53;;;;;;;2.87;2.77;;;;;;;;;;6230566;28;20312;-72
2023/10/27 00:57:58;;;;;;;3.58;3.20;;;;;;;;;;6230905;28;20324;-71
2023/10/27 01:01:03;;;;;;;3.38;2.97;;;;;;;;;;6247043;28;20292;-72
2023/10/27 01:04:08;;;;;;;2.90;2.80;;;;;;;;;;6232836;28;20292;-71
2023/10/27 01:07:12;;;;;;;5.60;3.10;;;;;;;;;;6230874;28;20450;-72
2023/10/27 01:10:16;;;;;;;2.90;2.80;;;;;;;;;;6236685;28;20303;-70
2023/10/27 01:13:21;;;;;;;3.00;2.90;;;;;;;;;;6257269;28;20299;-71
2023/10/27 01:16:25;;;;;;;3.30;3.00;;;;;;;;;;6238767;28;20295;-71
2023/10/27 01:19:30;;;;;;;4.43;3.17;;;;;;;;;;6255850;28;20296;-71
2023/10/27 01:22:40;;;;;;;3.33;3.03;;;;;;;;;;6238855;28;20291;-71
2023/10/27 01:25:44;;;;;;;3.03;2.72;;;;;;;;;;6254970;28;20569;-71
2023/10/27 01:28:48;;;;;;;3.05;2.90;;;;;;;;;;6256782;28;20342;-72
2023/10/27 01:31:52;;;;;;;4.05;2.95;;;;;;;;;;6237606;28;20291;-71
2023/10/27 01:34:55;;;;;;;3.33;3.20;;;;;;;;;;6255977;28;20367;-73
2023/10/27 01:38:01;;;;;;;3.37;3.17;;;;;;;;;;6254981;28;20440;-72
2023/10/27 01:41:05;;;;;;;3.20;3.10;;;;;;;;;;6228842;28;20328;-71
2023/10/27 01:44:09;;;;;;;3.38;3.15;;;;;;;;;;6236086;28;20300;-71
2023/10/27 01:47:13;;;;;;;2.95;2.85;;;;;;;;;;6229386;28;20484;-71
2023/10/27 01:50:17;;;;;;;3.45;2.90;;;;;;;;;;6231212;28;20304;-71
2023/10/27 01:53:22;;;;;;;3.45;3.10;;;;;;;;;;6229957;28;20239;-71
2023/10/27 01:56:26;;;;;;;3.63;3.03;;;;;;;;;;6238438;28;20292;-71
2023/10/27 01:59:30;;;;;;;3.25;3.10;;;;;;;;;;6220397;28;20498;-71
2023/10/27 02:02:33;;;;;;;3.30;3.10;;;;;;;;;;6253949;28;20489;-70
2023/10/27 02:05:43;;;;;;;2.60;2.50;;;;;;;;;;6255308;28;20311;-71
2023/10/27 02:08:49;;;;;;;3.33;3.10;;;;;;;;;;6254312;28;20300;-71
2023/10/27 02:11:53;;;;;;;3.20;3.10;;;;;;;;;;6251642;28;20280;-71
2023/10/27 02:14:57;;;;;;;3.30;3.17;;;;;;;;;;6255085;28;20287;-71
2023/10/27 02:18:01;;;;;;;3.00;2.88;;;;;;;;;;6253558;28;20599;-70
2023/10/27 02:21:05;;;;;;;3.17;3.03;;;;;;;;;;6255250;28;20299;-72
2023/10/27 02:24:10;;;;;;;3.47;3.20;;;;;;;;;;6253952;28;20295;-71
2023/10/27 02:27:14;;;;;;;3.37;3.23;;;;;;;;;;6253157;28;20299;-72
2023/10/27 02:30:18;;;;;;;3.20;3.00;;;;;;;;;;6253011;28;20300;-72
2023/10/27 02:33:22;;;;;;;2.95;2.85;;;;;;;;;;6271456;28;20303;-73
2023/10/27 02:36:26;;;;;;;3.25;3.05;;;;;;;;;;6278345;28;20327;-73
2023/10/27 02:39:32;;;;;;;3.10;2.90;;;;;;;;;;6279249;28;20290;-72
2023/10/27 02:42:38;;;;;;;3.38;3.13;;;;;;;;;;6269499;28;20556;-72
2023/10/27 02:45:43;;;;;;;3.53;3.22;;;;;;;;;;6254410;28;20311;-72
2023/10/27 02:48:47;;;;;;;3.60;3.00;;;;;;;;;;6254616;28;20291;-70
2023/10/27 02:51:51;;;;;;;3.30;3.03;;;;;;;;;;6252606;28;20295;-71
2023/10/27 02:54:56;;;;;;;3.95;3.53;;;;;;;;;;6254184;28;20291;-72
2023/10/27 02:58:02;;;;;;;3.00;2.90;;;;;;;;;;6254385;28;20292;-70
2023/10/27 03:01:09;;;;;;;3.08;2.97;;;;;;;;;;6260480;28;20506;-72
2023/10/27 03:04:15;;;;;;;3.65;3.45;;;;;;;;;;6276695;28;20294;-71
2023/10/27 03:07:19;;;;;;;3.58;3.33;;;;;;;;;;6277358;28;20298;-71
2023/10/27 03:10:25;;;;;;;3.58;3.35;;;;;;;;;;6276920;28;20480;-71
2023/10/27 03:13:29;;;;;;;4.32;3.80;;;;;;;;;;6278294;28;20291;-71
2023/10/27 03:16:34;;;;;;;3.50;3.13;;;;;;;;;;6276957;28;20287;-72
2023/10/27 03:19:38;;;;;;;3.67;3.50;;;;;;;;;;6278190;28;20306;-71
2023/10/27 03:22:43;;;;;;;3.47;3.20;;;;;;;;;;6279028;28;20298;-72
2023/10/27 03:25:48;;;;;;;3.23;3.03;;;;;;;;;;6278199;28;20583;-72
2023/10/27 03:28:52;;;;;;;4.03;3.27;;;;;;;;;;6278393;28;20606;-72
2023/10/27 03:31:56;;;;;;;3.13;3.03;;;;;;;;;;6278715;28;20287;-71
2023/10/27 03:35:00;;;;;;;3.77;3.47;;;;;;;;;;6279512;28;20303;-71
2023/10/27 03:38:04;;;;;;;3.20;3.00;;;;;;;;;;6278855;28;20298;-71
2023/10/27 03:41:09;;;;;;;3.53;3.33;;;;;;;;;;6277109;28;20290;-71
2023/10/27 03:44:16;;;;;;;3.53;3.33;;;;;;;;;;6278118;28;20551;-71
2023/10/27 03:47:20;;;;;;;3.58;3.33;;;;;;;;;;6277174;28;20443;-71
2023/10/27 03:50:24;;;;;;;3.28;3.08;;;;;;;;;;6282786;28;20290;-70
2023/10/27 03:53:28;;;;;;;3.15;3.00;;;;;;;;;;6283385;28;20588;-71
2023/10/27 03:56:33;;;;;;;3.35;3.15;;;;;;;;;;6283388;28;20319;-70
2023/10/27 03:59:37;;;;;;;3.35;3.10;;;;;;;;;;6283043;28;20326;-72
2023/10/27 04:02:41;;;;;;;4.82;3.35;;;;;;;;;;6283319;28;20330;-70
2023/10/27 04:05:45;;;;;;;4.30;3.40;;;;;;;;;;6282722;28;20339;-72
2023/10/27 04:08:48;;;;;;;3.50;3.30;;;;;;;;;;6282863;28;20306;-71
2023/10/27 04:11:54;;;;;;;3.20;3.10;;;;;;;;;;6281193;28;20575;-71
2023/10/27 04:14:57;;;;;;;3.40;3.20;;;;;;;;;;6282885;28;20311;-72
2023/10/27 04:18:02;;;;;;;3.40;3.30;;;;;;;;;;6283626;28;20611;-72
2023/10/27 04:21:06;;;;;;;3.10;2.90;;;;;;;;;;6279467;28;20308;-72
2023/10/27 04:24:10;;;;;;;3.10;3.00;;;;;;;;;;6257775;28;20295;-70
2023/10/27 04:27:15;;;;;;;3.53;3.10;;;;;;;;;;6258047;28;20497;-70
2023/10/27 04:30:19;;;;;;;3.28;3.08;;;;;;;;;;6257557;28;20307;-70
2023/10/27 04:33:24;;;;;;;3.33;3.03;;;;;;;;;;6275580;28;20304;-70
2023/10/27 04:36:29;;;;;;;3.25;3.15;;;;;;;;;;6282438;28;20502;-70
2023/10/27 04:39:33;;;;;;;3.08;3.08;;;;;;;;;;6281959;28;20303;-71
2023/10/27 04:42:38;;;;;;;3.80;3.60;;;;;;;;;;6282431;28;20603;-73
2023/10/27 04:45:42;;;;;;;3.05;2.95;;;;;;;;;;6254055;28;20307;-72
2023/10/27 04:48:54;;;;;;;2.88;2.88;;;;;;;;;;6246659;28;20295;-71
2023/10/27 04:52:06;;;;;;;3.40;3.30;;;;;;;;;;6253860;28;20307;-72
2023/10/27 04:55:10;;;;;;;3.97;3.77;;;;;;;;;;6255685;28;20474;-73
2023/10/27 04:58:18;;;;;;;5.00;3.50;;;;;;;;;;6257287;28;20303;-73
2023/10/27 05:01:25;;;;;;;3.40;3.30;;;;;;;;;;6256067;28;20303;-72
2023/10/27 05:04:31;;;;;;;3.78;3.47;;;;;;;;;;6256542;28;20291;-72
2023/10/27 05:07:36;;;;;;;3.13;3.03;;;;;;;;;;6257364;28;20583;-71
2023/10/27 05:10:40;;;;;;;3.55;3.40;;;;;;;;;;6247145;28;20304;-71
2023/10/27 05:13:46;;;;;;;3.67;3.47;;;;;;;;;;6232260;28;20308;-71
2023/10/27 05:16:50;;;;;;;3.53;3.33;;;;;;;;;;6231308;28;20241;-72
2023/10/27 05:19:54;;;;;;;3.60;3.40;;;;;;;;;;6232123;28;20300;-72
2023/10/27 05:22:58;;;;;;;3.60;3.40;;;;;;;;;;6232503;28;20307;-70
2023/10/27 05:26:02;;;;;;;3.27;2.97;;;;;;;;;;6232535;28;20307;-71
2023/10/27 05:29:07;;;;;;;3.60;3.28;;;;;;;;;;6231103;28;20304;-71
2023/10/27 05:32:13;;;;;;;3.47;3.37;;;;;;;;;;6231983;28;20300;-70
2023/10/27 05:35:17;;;;;;;3.57;3.40;;;;;;;;;;6249341;28;20592;-71
2023/10/27 05:38:21;;;;;;;4.07;3.72;;;;;;;;;;6256149;28;20470;-72
2023/10/27 05:41:24;;;;;;;3.90;3.70;;;;;;;;;;6256593;28;20311;-72
2023/10/27 05:44:30;;;;;;;3.53;3.33;;;;;;;;;;6271112;28;20303;-71
2023/10/27 05:47:34;;;;;;;4.03;3.63;;;;;;;;;;6280467;28;20346;-72
2023/10/27 05:50:38;;;;;;;4.13;3.83;;;;;;;;;;6280900;28;20306;-70
2023/10/27 05:53:42;;;;;;;5.13;3.60;;;;;;;;;;6280174;28;20287;-71
2023/10/27 05:56:46;;;;;;;3.60;3.40;;;;;;;;;;6281007;28;20296;-70
2023/10/27 05:59:51;;;;;;;3.83;3.53;;;;;;;;;;6280302;28;20318;-71
2023/10/27 06:02:54;;;;;;;4.00;3.70;;;;;;;;;;6280813;28;20310;-72
2023/10/27 06:05:58;;;;;;;3.60;3.50;;;;;;;;;;6280095;28;20458;-71
2023/10/27 06:09:03;;;;;;;3.70;3.50;;;;;;;;;;6280093;28;20295;-72
2023/10/27 06:12:08;;;;;;;3.53;3.33;;;;;;;;;;6277756;28;20362;-70
2023/10/27 06:15:14;;;;;;;3.53;3.33;;;;;;;;;;6279771;28;20414;-71
2023/10/27 06:18:18;;;;;;;4.90;3.35;;;;;;;;;;6279612;28;20311;-71
2023/10/27 06:21:22;;;;;;;3.77;3.60;;;;;;;;;;6280508;28;20318;-71
2023/10/27 06:24:26;;;;;;;4.00;3.60;;;;;;;;;;6279126;28;20287;-70
2023/10/27 06:27:29;;;;;;;5.25;3.60;;;;;;;;;;6261605;28;20320;-71
2023/10/27 06:30:35;;;;;;;3.53;3.23;;;;;;;;;;6279218;28;20291;-71
2023/10/27 06:33:39;;;;;;;3.80;3.50;;;;;;;;;;6278998;28;20315;-73
2023/10/27 06:36:42;;;;;;;3.77;3.57;;;;;;;;;;6279651;28;20306;-69
2023/10/27 06:39:46;;;;;;;3.70;3.50;;;;;;;;;;6278610;28;20473;-72
2023/10/27 06:42:50;;;;;;;4.57;4.18;;;;;;;;;;6279402;28;20294;-71
2023/10/27 06:45:55;;;;;;;3.80;3.70;;;;;;;;;;6279014;28;20291;-72
2023/10/27 06:48:59;;;;;;;3.38;3.28;;;;;;;;;;6279624;28;20326;-72
2023/10/27 06:52:03;;;;;;;3.88;3.67;;;;;;;;;;6278584;28;20310;-72
2023/10/27 06:55:08;;;;;;;5.20;3.97;;;;;;;;;;6278936;28;20305;-72
2023/10/27 06:58:12;;;;;;;3.60;3.40;;;;;;;;;;6278878;28;20323;-72
2023/10/27 07:01:17;;;;;;;3.70;3.60;;;;;;;;;;6279692;28;20303;-71
2023/10/27 07:04:21;;;;;;;3.25;2.95;;;;;;;;;;6278265;28;20298;-71
2023/10/27 07:07:25;;;;;;;3.17;3.08;;;;;;;;;;6279179;28;20331;-71
2023/10/27 07:10:31;;;;;;;3.95;3.38;;;;;;;;;;6276903;28;20311;-71
2023/10/27 07:13:35;;;;;;;3.25;3.15;;;;;;;;;;6278819;28;20310;-72
2023/10/27 07:16:41;;;;;;;3.30;3.20;;;;;;;;;;6279436;28;20290;-72
2023/10/27 07:19:45;;;;;;;2.92;2.80;;;;;;;;;;6278713;28;20290;-71
2023/10/27 07:22:49;;;;;;;2.73;2.73;;;;;;;;;;6278889;28;20291;-71
2023/10/27 07:25:53;;;;;;;4.57;2.90;;;;;;;;;;6278171;28;20418;-71
2023/10/27 07:28:57;;;;;;;3.10;2.92;;;;;;;;;;6278307;28;20295;-72
2023/10/27 07:32:05;;;;;;;3.60;3.35;;;;;;;;;;6279544;28;20310;-71
2023/10/27 07:35:09;;;;;;;2.70;2.60;;;;;;;;;;6278743;28;20302;-73
2023/10/27 07:38:13;;;;;;;2.57;2.57;;;;;;;;;;6278658;28;20326;-73
2023/10/27 07:41:17;;;;;;;3.00;2.90;;;;;;;;;;6278801;28;20303;-72
2023/10/27 07:44:20;;;;;;;3.15;3.05;;;;;;;;;;6278977;28;20637;-71
2023/10/27 07:47:26;;;;;;;3.20;3.10;;;;;;;;;;6279189;28;20302;-71
2023/10/27 07:50:29;;;;;;;3.00;2.90;;;;;;;;;;6278187;28;20322;-71
2023/10/27 07:53:33;;;;;;;3.20;3.10;;;;;;;;;;6278349;28;20298;-72
2023/10/27 07:56:37;;;;;;;3.25;3.05;;;;;;;;;;6279059;28;20636;-74
2023/10/27 07:59:41;;;;;;;3.97;3.78;;;;;;;;;;6278428;28;20572;-71
2023/10/27 08:02:47;;;;;;;3.67;3.47;;;;;;;;;;6278801;28;20314;-72
2023/10/27 08:05:52;;;;;;;3.60;3.50;;;;;;;;;;6277869;28;20588;-72
2023/10/27 08:08:55;;;;;;;3.67;3.47;;;;;;;;;;6278416;28;20371;-72
2023/10/27 08:11:59;;;;;;;3.38;3.28;;;;;;;;;;6276767;28;20374;-72
2023/10/27 08:15:05;;;;;;;3.38;3.30;;;;;;;;;;6278601;28;20294;-71
2023/10/27 08:18:10;;;;;;;3.50;3.40;;;;;;;;;;6277995;28;20308;-70
2023/10/27 08:21:14;;;;;;;5.40;3.00;;;;;;;;;;6278527;28;20595;-71
2023/10/27 08:24:18;;;;;;;3.15;2.90;;;;;;;;;;6277917;28;20480;-71
2023/10/27 08:27:23;;;;;;;3.65;3.15;;;;;;;;;;6278418;28;20520;-72
2023/10/27 08:30:27;;;;;;;3.40;3.17;;;;;;;;;;6278159;28;20315;-71
2023/10/27 08:33:32;;;;;;;2.97;2.88;;;;;;;;;;6277595;28;20291;-71
2023/10/27 08:36:36;;;;;;;3.13;3.03;;;;;;;;;;6282549;28;20291;-71
2023/10/27 08:39:40;;;;;;;2.85;2.75;;;;;;;;;;6282143;28;20314;-71
2023/10/27 08:42:45;;;;;;;2.90;2.80;;;;;;;;;;6283033;28;20295;-71
2023/10/27 08:45:49;;;;;;;2.78;2.67;;;;;;;;;;6282351;28;20287;-71
2023/10/27 08:48:55;;;;;;;3.88;3.08;;;;;;;;;;6282787;28;20295;-71
2023/10/27 08:52:00;;;;;;;2.58;2.47;;;;;;;;;;6282481;28;20510;-72
2023/10/27 08:55:08;;;;;;;2.80;2.70;;;;;;;;;;6263701;28;20291;-71
2023/10/27 08:58:12;;;;;;;2.75;2.75;;;;;;;;;;6281651;28;20303;-71
2023/10/27 09:01:16;;;;;;;2.88;2.78;;;;;;;;;;6282313;28;20314;-71
2023/10/27 09:04:23;;;;;;;3.47;2.90;;;;;;;;;;6281787;28;20322;-71
2023/10/27 09:07:28;;;;;;;2.83;2.60;;;;;;;;;;6281924;28;20303;-74
2023/10/27 09:10:32;;;;;;;3.00;2.90;;;;;;;;;;6279910;28;20290;-72
2023/10/27 09:13:39;;;;;;;2.90;2.80;;;;;;;;;;6281516;28;20331;-71
2023/10/27 09:16:43;;;;;;;2.33;2.33;;;;;;;;;;6278233;28;20332;-72
2023/10/27 09:19:48;;;;;;;2.83;2.63;;;;;;;;;;6256262;28;20295;-71
2023/10/27 09:22:57;;;;;;;2.75;2.65;;;;;;;;;;6256934;28;20477;-73
2023/10/27 09:26:02;;;;;;;2.97;2.75;;;;;;;;;;6256167;28;20299;-71
2023/10/27 09:29:05;;;;;;;3.15;2.83;;;;;;;;;;6256043;28;20303;-71
2023/10/27 09:32:24;;;;;;;2.58;2.47;;;;;;;;;;6265234;28;20520;-72
2023/10/27 09:35:29;;;;;;;2.72;2.63;;;;;;;;;;6281295;28;20302;-71
2023/10/27 09:38:33;;;;;;;3.58;3.28;;;;;;;;;;6280143;28;20473;-72
2023/10/27 09:41:39;;;;;;;3.50;3.20;;;;;;;;;;6249945;28;20339;-73
2023/10/27 09:44:52;;;;;;;2.70;2.60;;;;;;;;;;6222863;28;20512;-71
2023/10/27 09:48:03;;;;;;;2.45;2.35;;;;;;;;;;6275036;28;20502;-72
2023/10/27 09:51:16;;;;;;;3.08;2.95;;;;;;;;;;6279822;28;20302;-73
2023/10/27 09:54:20;;;;;;;2.58;2.47;;;;;;;;;;6279933;28;20599;-72
2023/10/27 09:57:24;;;;;;;2.80;2.70;;;;;;;;;;6280556;28;20600;-71
2023/10/27 10:00:31;;;;;;;2.53;2.42;;;;;;;;;;6262025;28;20494;-70
2023/10/27 10:03:35;;;;;;;2.90;2.80;;;;;;;;;;6280037;28;20299;-72
2023/10/27 10:06:43;;;;;;;2.70;2.60;;;;;;;;;;6280711;28;20560;-71
2023/10/27 10:09:54;;;;;;;2.78;2.67;;;;;;;;;;6277936;28;20303;-71
2023/10/27 10:13:03;;;;;;;2.50;2.50;;;;;;;;;;6281077;28;20339;-71
2023/10/27 10:16:08;;;;;;;2.97;2.70;;;;;;;;;;6279707;28;20299;-70
2023/10/27 10:19:12;;;;;;;3.00;2.90;;;;;;;;;;6279561;28;20299;-73
2023/10/27 10:22:55;;;;;;;2.63;2.47;;;;;;;;;;6280395;28;20299;-71
2023/10/27 10:26:03;;;;;;;2.60;2.50;;;;;;;;;;6262678;28;20257;-71
2023/10/27 10:29:28;;;;;;;2.50;2.50;;;;;;;;;;6280040;28;20311;-73
2023/10/27 10:32:36;;;;;;;2.80;2.75;;;;;;;;;;6279146;28;20298;-71
2023/10/27 10:35:40;;;;;;;2.70;2.65;;;;;;;;;;6277858;28;20303;-71
2023/10/27 10:38:44;;;;;;;2.70;2.70;;;;;;;;;;6279622;28;20425;-70
2023/10/27 10:42:03;;;;;;;3.30;3.05;;;;;;;;;;6279947;28;20310;-70
2023/10/27 10:45:07;;;;;;;2.90;2.70;;;;;;;;;;6276048;28;20311;-72
2023/10/27 10:48:11;;;;;;;2.80;2.60;;;;;;;;;;6279392;28;20299;-71
2023/10/27 10:51:15;;;;;;;2.53;2.53;;;;;;;;;;6279981;28;20303;-72
2023/10/27 10:54:26;;;;;;;2.70;2.50;;;;;;;;;;6279112;28;20291;-72
2023/10/27 10:57:32;;;;;;;3.08;2.90;;;;;;;;;;6279722;28;20342;-72
2023/10/27 11:00:36;;;;;;;3.22;2.97;;;;;;;;;;6279103;28;20303;-71
2023/10/27 11:03:40;;;;;;;3.92;2.90;;;;;;;;;;6278800;28;20299;-71
2023/10/27 11:06:45;;;;;;;3.00;2.75;;;;;;;;;;6277732;28;20308;-73
2023/10/27 11:09:49;;;;;;;2.63;2.53;;;;;;;;;;6277611;28;20627;-71
2023/10/27 11:12:54;;;;;;;2.88;2.70;;;;;;;;;;6279419;28;20299;-71
2023/10/27 11:15:58;;;;;;;4.03;2.53;;;;;;;;;;6279525;28;20307;-70
2023/10/27 11:19:02;;;;;;;4.63;2.50;;;;;;;;;;6279654;28;20387;-70
2023/10/27 11:22:06;;;;;;;2.85;2.70;;;;;;;;;;6279275;28;20307;-70
2023/10/27 11:25:27;;;;;;;2.60;2.50;;;;;;;;;;6279329;28;20294;-72
2023/10/27 11:28:37;;;;;;;1.90;1.90;;;;;;;;;;6275652;28;20291;-71
2023/10/27 11:31:45;;;;;;;1.90;1.90;;;;;;;;;;6279168;28;20303;-72
2023/10/27 11:34:55;;;;;;;2.38;2.05;;;;;;;;;;6278835;28;20299;-72
2023/10/27 11:38:02;;;;;;;2.10;2.00;;;;;;;;;;6279246;28;20295;-71
2023/10/27 11:41:11;;;;;;;1.80;1.80;;;;;;;;;;6278422;28;20318;-71
2023/10/27 11:44:17;;;;;;;1.80;1.80;;;;;;;;;;6278974;28;20315;-72
2023/10/27 11:47:21;;;;;;;1.65;1.65;;;;;;;;;;6279326;28;20298;-72
2023/10/27 11:50:24;;;;;;;2.08;2.03;;;;;;;;;;6278628;28;20402;-71
2023/10/27 11:53:28;;;;;;;2.08;1.98;;;;;;;;;;6278509;28;20410;-71
2023/10/27 11:56:32;;;;;;;1.88;1.88;;;;;;;;;;6278259;28;20306;-71
2023/10/27 11:59:37;;;;;;;2.10;2.00;;;;;;;;;;6278377;28;20608;-69
2023/10/27 12:02:41;;;;;;;2.00;2.00;;;;;;;;;;6279275;28;20307;-70
2023/10/27 12:05:45;;;;;;;2.20;2.10;;;;;;;;;;6278874;28;20291;-71
2023/10/27 12:08:49;;;;;;;2.30;2.25;;;;;;;;;;6278663;28;20599;-72
2023/10/27 12:11:53;;;;;;;2.53;2.38;;;;;;;;;;6281689;28;20530;-71
2023/10/27 12:14:58;;;;;;;2.28;2.10;;;;;;;;;;6282993;28;20318;-71
2023/10/27 12:18:03;;;;;;;3.10;2.58;;;;;;;;;;6283296;28;20299;-72
2023/10/27 12:21:07;;;;;;;2.65;2.47;;;;;;;;;;6282515;28;20307;-72
2023/10/27 12:24:13;;;;;;;2.50;2.50;;;;;;;;;;6282959;28;20314;-71
2023/10/27 12:27:36;;;;;;;2.20;2.10;;;;;;;;;;6273474;28;20303;-72
2023/10/27 12:30:42;;;;;;;2.40;2.30;;;;;;;;;;6282552;28;20295;-72
2023/10/27 12:33:46;;;;;;;2.45;2.35;;;;;;;;;;6282851;28;20326;-71
2023/10/27 12:36:49;;;;;;;2.25;2.25;;;;;;;;;;6283635;28;20287;-74
2023/10/27 12:39:53;;;;;;;2.20;2.20;;;;;;;;;;6282561;28;20288;-72
2023/10/27 12:42:57;;;;;;;2.03;2.03;;;;;;;;;;6282947;28;20307;-72
2023/10/27 12:46:06;;;;;;;2.20;2.20;;;;;;;;;;6282729;28;20294;-70
2023/10/27 12:49:09;;;;;;;1.60;1.60;;;;;;;;;;6282881;28;20312;-71
2023/10/27 12:52:14;;;;;;;1.50;1.50;;;;;;;;;;6283211;28;20306;-71
2023/10/27 12:55:17;;;;;;;1.70;1.67;;;;;;;;;;6282396;28;20321;-72
2023/10/27 12:58:21;;;;;;;1.50;1.50;;;;;;;;;;6280651;28;20479;-72
2023/10/27 13:01:26;;;;;;;1.48;1.48;;;;;;;;;;6279885;28;20339;-72
2023/10/27 13:04:30;;;;;;;2.08;1.58;;;;;;;;;;6281810;28;20302;-72
2023/10/27 13:07:34;;;;;;;1.52;1.45;;;;;;;;;;6282510;28;20615;-72
2023/10/27 13:10:40;;;;;;;2.10;2.10;;;;;;;;;;6271699;28;20285;-71
2023/10/27 13:13:54;;;;;;;1.88;1.77;;;;;;;;;;6274193;28;20302;-71
2023/10/27 13:17:03;;;;;;;2.83;2.63;;;;;;;;;;6248441;28;20233;-70
2023/10/27 13:20:12;;;;;;;1.98;1.88;;;;;;;;;;6256989;28;20232;-70
2023/10/27 13:23:16;;;;;;;2.60;2.50;;;;;;;;;;6270214;28;20600;-70
2023/10/27 13:26:20;;;;;;;2.70;2.50;;;;;;;;;;6256953;28;20307;-69
2023/10/27 13:29:24;;;;;;;2.75;2.70;;;;;;;;;;6256513;28;20295;-69
2023/10/27 13:32:30;;;;;;;2.85;2.65;;;;;;;;;;6257329;28;20295;-71
2023/10/27 13:35:34;;;;;;;2.80;2.70;;;;;;;;;;6255583;28;20344;-72
2023/10/27 13:38:38;;;;;;;2.95;2.90;;;;;;;;;;6256576;28;20295;-70
2023/10/27 13:41:42;;;;;;;2.63;2.53;;;;;;;;;;6256864;28;20322;-70
2023/10/27 13:44:45;;;;;;;2.97;2.70;;;;;;;;;;6256808;28;20307;-72
2023/10/27 13:47:51;;;;;;;2.65;2.55;;;;;;;;;;6267010;28;20319;-71
2023/10/27 13:50:55;;;;;;;2.65;2.50;;;;;;;;;;6280551;28;20296;-70
2023/10/27 13:53:59;;;;;;;2.78;2.58;;;;;;;;;;6280685;28;20286;-70
2023/10/27 13:57:03;;;;;;;3.00;2.80;;;;;;;;;;6281360;28;20303;-71
2023/10/27 14:00:11;;;;;;;2.47;2.45;;;;;;;;;;6282125;28;20291;-71
2023/10/27 14:03:19;;;;;;;2.58;2.40;;;;;;;;;;6281924;28;20287;-70
2023/10/27 14:06:24;;;;;;;2.33;2.33;;;;;;;;;;6282131;28;20315;-71
2023/10/27 14:09:29;;;;;;;2.55;2.42;;;;;;;;;;6281579;28;20295;-70
2023/10/27 14:12:32;;;;;;;2.90;2.80;;;;;;;;;;6279811;28;20299;-70
2023/10/27 14:15:36;;;;;;;2.50;2.40;;;;;;;;;;6281569;28;20520;-70
2023/10/27 14:18:41;;;;;;;2.45;2.28;;;;;;;;;;6281472;28;20302;-71
2023/10/27 14:21:46;;;;;;;2.15;2.15;;;;;;;;;;6280783;28;20242;-70
2023/10/27 14:24:50;;;;;;;2.58;2.47;;;;;;;;;;6279595;28;20295;-71
2023/10/27 14:27:58;;;;;;;2.30;2.28;;;;;;;;;;6280427;28;20302;-71
2023/10/27 14:31:06;;;;;;;2.50;2.40;;;;;;;;;;6279582;28;20318;-71
2023/10/27 14:34:11;;;;;;;3.10;3.00;;;;;;;;;;6279430;28;20299;-71
2023/10/27 14:37:15;;;;;;;2.65;2.50;;;;;;;;;;6279431;28;20298;-71
2023/10/27 14:40:19;;;;;;;2.60;2.50;;;;;;;;;;6278916;28;20318;-71
2023/10/27 14:43:23;;;;;;;2.60;2.47;;;;;;;;;;6278373;28;20354;-71
2023/10/27 14:46:26;;;;;;;2.97;2.78;;;;;;;;;;6278435;28;20291;-71
2023/10/27 14:49:32;;;;;;;2.70;2.42;;;;;;;;;;6276924;28;20443;-73
2023/10/27 14:52:37;;;;;;;2.13;2.13;;;;;;;;;;6286649;28;20287;-71
2023/10/27 14:55:41;;;;;;;1.95;1.95;;;;;;;;;;6279077;28;20314;-70
2023/10/27 14:58:44;;;;;;;2.65;2.47;;;;;;;;;;6278656;28;20294;-70
2023/10/27 15:01:48;;;;;;;2.38;2.28;;;;;;;;;;6279219;28;20294;-72
2023/10/27 15:04:54;;;;;;;2.58;2.42;;;;;;;;;;6278927;28;20302;-71
2023/10/27 15:07:58;;;;;;;2.30;2.20;;;;;;;;;;6278991;28;20306;-72
2023/10/27 15:11:01;;;;;;;2.70;2.65;;;;;;;;;;6276962;28;20510;-71
2023/10/27 15:14:07;;;;;;;2.65;2.55;;;;;;;;;;6278702;28;20314;-71
2023/10/27 15:17:11;;;;;;;2.60;2.50;;;;;;;;;;6278869;28;20529;-71
2023/10/27 15:20:16;;;;;;;2.40;2.40;;;;;;;;;;6269184;28;20654;-71
2023/10/27 15:23:22;;;;;;;3.50;2.60;;;;;;;;;;6278157;28;20489;-70
2023/10/27 15:26:26;;;;;;;2.47;2.38;;;;;;;;;;6293774;28;20454;-71
2023/10/27 15:29:30;;;;;;;2.38;2.38;;;;;;;;;;6277890;28;20351;-71
2023/10/27 15:32:34;;;;;;;2.63;2.53;;;;;;;;;;6278593;28;20294;-72
2023/10/27 15:35:39;;;;;;;2.30;2.30;;;;;;;;;;6276645;28;20302;-70
2023/10/27 15:38:43;;;;;;;2.10;2.10;;;;;;;;;;6278074;28;20302;-71
2023/10/27 15:41:55;;;;;;;2.60;2.60;;;;;;;;;;6275847;28;20249;-72
2023/10/27 15:44:59;;;;;;;2.60;2.50;;;;;;;;;;6278060;28;20310;-70
2023/10/27 15:48:03;;;;;;;2.42;2.38;;;;;;;;;;6283728;28;20378;-71
2023/10/27 15:51:09;;;;;;;3.80;2.63;;;;;;;;;;6283004;28;20290;-70
2023/10/27 15:54:13;;;;;;;2.65;2.65;;;;;;;;;;6282902;28;20302;-72
2023/10/27 15:57:18;;;;;;;2.58;2.47;;;;;;;;;;6288473;28;20302;-71
2023/10/27 16:00:22;;;;;;;2.78;2.67;;;;;;;;;;6282840;28;20299;-71
2023/10/27 16:03:26;;;;;;;3.00;2.90;;;;;;;;;;6282118;28;20414;-70
2023/10/27 16:06:32;;;;;;;3.05;2.88;;;;;;;;;;6282154;28;20298;-70
2023/10/27 16:09:36;;;;;;;3.95;2.70;;;;;;;;;;6257989;28;20431;-71
2023/10/27 16:12:52;;;;;;;2.80;2.70;;;;;;;;;;6258391;28;20300;-69
2023/10/27 16:15:57;;;;;;;2.80;2.70;;;;;;;;;;6279778;28;20311;-70
2023/10/27 16:19:01;;;;;;;2.83;2.72;;;;;;;;;;6301947;28;20290;-72
2023/10/27 16:22:06;;;;;;;2.88;2.53;;;;;;;;;;6294572;28;20234;-69
2023/10/27 16:25:10;;;;;;;2.78;2.72;;;;;;;;;;6277034;28;20307;-71
2023/10/27 16:28:15;;;;;;;3.67;3.38;;;;;;;;;;6255392;28;20608;-70
2023/10/27 16:31:19;;;;;;;2.63;2.53;;;;;;;;;;6257681;28;20299;-69
2023/10/27 16:34:23;;;;;;;2.72;2.72;;;;;;;;;;6257150;28;20303;-70
2023/10/27 16:37:29;;;;;;;3.25;2.88;;;;;;;;;;6258001;28;20303;-72
2023/10/27 16:40:32;;;;;;;3.17;3.08;;;;;;;;;;6257602;28;20304;-70
2023/10/27 16:43:40;;;;;;;2.88;2.75;;;;;;;;;;6257165;28;20299;-71
2023/10/27 16:46:50;;;;;;;3.15;3.05;;;;;;;;;;6257538;28;20291;-70
2023/10/27 16:49:55;;;;;;;3.13;3.03;;;;;;;;;;6257585;28;20577;-70
2023/10/27 16:53:01;;;;;;;5.00;3.72;;;;;;;;;;6257857;28;20291;-72
2023/10/27 16:56:05;;;;;;;3.38;3.20;;;;;;;;;;6257690;28;20312;-72
2023/10/27 16:59:09;;;;;;;6.10;4.70;;;;;;;;;;6256922;28;20319;-71
2023/10/27 17:02:13;;;;;;;5.88;4.35;;;;;;;;;;6257337;28;20240;-71
2023/10/27 17:05:19;;;;;;;3.67;3.47;;;;;;;;;;6256886;28;20315;-71
2023/10/27 17:08:27;;;;;;;3.78;3.58;;;;;;;;;;6261583;28;20302;-73
2023/10/27 17:11:31;;;;;;;3.85;3.58;;;;;;;;;;6279491;28;20298;-72
2023/10/27 17:14:35;;;;;;;3.55;3.35;;;;;;;;;;6281623;28;20323;-71
2023/10/27 17:17:41;;;;;;;3.28;3.17;;;;;;;;;;6281654;28;20310;-71
2023/10/27 17:20:45;;;;;;;3.75;3.42;;;;;;;;;;6281394;28;20291;-70
2023/10/27 17:23:51;;;;;;;3.78;3.65;;;;;;;;;;6280935;28;20473;-71
2023/10/27 17:26:55;;;;;;;3.80;3.50;;;;;;;;;;6281895;28;20319;-71
2023/10/27 17:29:59;;;;;;;3.35;3.22;;;;;;;;;;6281791;28;20295;-70
2023/10/27 17:33:02;;;;;;;3.85;3.72;;;;;;;;;;6282226;28;20303;-72
2023/10/27 17:36:10;;;;;;;3.90;3.60;;;;;;;;;;6281031;28;20300;-71
2023/10/27 17:39:16;;;;;;;4.13;3.67;;;;;;;;;;6281713;28;20286;-70
2023/10/27 17:42:22;;;;;;;4.00;3.67;;;;;;;;;;6281412;28;20322;-71
2023/10/27 17:45:26;;;;;;;3.72;3.63;;;;;;;;;;6269464;28;20300;-70
2023/10/27 17:48:30;;;;;;;4.38;3.83;;;;;;;;;;6280500;28;20306;-72
2023/10/27 17:51:34;;;;;;;3.90;3.70;;;;;;;;;;6270892;28;20296;-71
2023/10/27 17:54:39;;;;;;;3.88;3.75;;;;;;;;;;6280007;28;20315;-69
2023/10/27 17:57:45;;;;;;;4.03;3.70;;;;;;;;;;6281332;28;20302;-72
2023/10/27 18:00:49;;;;;;;4.07;3.75;;;;;;;;;;6280566;28;20299;-70
2023/10/27 18:03:54;;;;;;;3.78;3.58;;;;;;;;;;6262127;28;20247;-71
2023/10/27 18:06:58;;;;;;;4.25;3.95;;;;;;;;;;6281386;28;20283;-72
2023/10/27 18:10:06;;;;;;;4.40;4.00;;;;;;;;;;6273015;28;20568;-71
2023/10/27 18:13:15;;;;;;;4.45;4.15;;;;;;;;;;6279684;28;20295;-72
2023/10/27 18:16:19;;;;;;;4.55;4.20;;;;;;;;;;6279498;28;20343;-70
2023/10/27 18:19:23;;;;;;;4.30;4.00;;;;;;;;;;6279968;28;20303;-69
2023/10/27 18:22:27;;;;;;;4.85;4.43;;;;;;;;;;6268108;28;20235;-70
2023/10/27 18:25:33;;;;;;;4.20;3.95;;;;;;;;;;6280006;28;20307;-71
2023/10/27 18:28:37;;;;;;;4.03;3.80;;;;;;;;;;6279818;28;20307;-70
2023/10/27 18:31:41;;;;;;;3.95;3.85;;;;;;;;;;6279943;28;20295;-71